sensor_id;sensor_type;location;lat;lon;timestamp;pressure;altitude;pressure_sealevel;temperature;humidity
3748;BME280;1889;50.058;8.688;2024-03-17T00:01:04;101058.45;;;11.90;56.49
3748;BME280;1889;50.058;8.688;2024-03-17T00:03:35;101055.76;;;11.94;56.51
3748;BME280;1889;50.058;8.688;2024-03-17T00:06:05;101050.48;;;11.96;56.50
3748;BME280;1889;50.058;8.688;2024-03-17T00:08:35;101051.84;;;11.91;56.47
3748;BME280;1889;50.058;8.688;2024-03-17T00:11:04;101047.96;;;11.82;56.67
3748;BME280;1889;50.058;8.688;2024-03-17T00:13:34;101047.10;;;11.77;56.92
3748;BME280;1889;50.058;8.688;2024-03-17T00:16:04;101060.23;;;11.84;56.65
3748;BME280;1889;50.058;8.688;2024-03-17T00:18:34;101060.51;;;12.07;55.81
3748;BME280;1889;50.058;8.688;2024-03-17T00:21:04;101063.54;;;12.09;55.67
3748;BME280;1889;50.058;8.688;2024-03-17T00:23:34;101061.47;;;11.94;55.60
3748;BME280;1889;50.058;8.688;2024-03-17T00:26:05;101055.52;;;11.66;55.92
3748;BME280;1889;50.058;8.688;2024-03-17T00:28:34;101053.48;;;11.41;56.91
3748;BME280;1889;50.058;8.688;2024-03-17T00:31:09;101059.64;;;11.37;57.36
3748;BME280;1889;50.058;8.688;2024-03-17T00:33:38;101059.64;;;11.38;57.50
3748;BME280;1889;50.058;8.688;2024-03-17T00:36:08;101053.98;;;11.31;57.73
3748;BME280;1889;50.058;8.688;2024-03-17T00:38:37;101055.38;;;11.15;58.14
3748;BME280;1889;50.058;8.688;2024-03-17T00:41:13;101054.62;;;10.94;58.73
3748;BME280;1889;50.058;8.688;2024-03-17T00:43:51;101048.88;;;10.99;59.01
3748;BME280;1889;50.058;8.688;2024-03-17T00:46:35;101048.84;;;11.10;59.01
3748;BME280;1889;50.058;8.688;2024-03-17T00:49:04;101044.01;;;11.06;59.03
3748;BME280;1889;50.058;8.688;2024-03-17T00:51:40;101039.17;;;11.09;59.15
3748;BME280;1889;50.058;8.688;2024-03-17T00:54:10;101035.58;;;11.21;59.20
3748;BME280;1889;50.058;8.688;2024-03-17T00:56:40;101030.27;;;11.30;58.53
3748;BME280;1889;50.058;8.688;2024-03-17T00:59:10;101021.92;;;11.27;58.42
3748;BME280;1889;50.058;8.688;2024-03-17T01:01:39;101022.80;;;11.29;58.59
3748;BME280;1889;50.058;8.688;2024-03-17T01:04:09;101021.04;;;11.30;58.57
3748;BME280;1889;50.058;8.688;2024-03-17T01:06:39;101017.97;;;11.30;58.68
3748;BME280;1889;50.058;8.688;2024-03-17T01:09:09;101015.31;;;11.35;58.49
3748;BME280;1889;50.058;8.688;2024-03-17T01:11:38;101006.53;;;11.34;58.34
3748;BME280;1889;50.058;8.688;2024-03-17T01:14:08;101008.30;;;11.29;58.46
3748;BME280;1889;50.058;8.688;2024-03-17T01:16:37;101007.47;;;11.26;58.46
3748;BME280;1889;50.058;8.688;2024-03-17T01:19:07;101006.16;;;11.21;58.61
3748;BME280;1889;50.058;8.688;2024-03-17T01:21:37;101005.33;;;11.15;58.63
3748;BME280;1889;50.058;8.688;2024-03-17T01:24:06;101004.98;;;10.98;58.73
3748;BME280;1889;50.058;8.688;2024-03-17T01:26:36;100994.92;;;10.87;58.88
3748;BME280;1889;50.058;8.688;2024-03-17T01:29:05;100992.73;;;10.87;59.08
3748;BME280;1889;50.058;8.688;2024-03-17T01:31:42;100993.61;;;10.92;59.18
3748;BME280;1889;50.058;8.688;2024-03-17T01:34:12;100994.05;;;10.90;59.26
3748;BME280;1889;50.058;8.688;2024-03-17T01:36:42;100993.17;;;10.89;59.26
3748;BME280;1889;50.058;8.688;2024-03-17T01:39:11;100990.53;;;10.88;59.21
3748;BME280;1889;50.058;8.688;2024-03-17T01:41:41;100983.08;;;10.90;59.19
3748;BME280;1889;50.058;8.688;2024-03-17T01:44:28;100986.98;;;10.95;58.78
3748;BME280;1889;50.058;8.688;2024-03-17T01:46:59;100985.27;;;10.92;58.92
3748;BME280;1889;50.058;8.688;2024-03-17T01:49:29;100986.63;;;10.86;59.03
3748;BME280;1889;50.058;8.688;2024-03-17T01:51:59;100979.60;;;10.82;59.13
3748;BME280;1889;50.058;8.688;2024-03-17T01:54:28;100980.48;;;10.81;59.27
3748;BME280;1889;50.058;8.688;2024-03-17T01:56:58;100980.00;;;10.88;59.01
3748;BME280;1889;50.058;8.688;2024-03-17T01:59:28;100980.08;;;10.74;59.11
3748;BME280;1889;50.058;8.688;2024-03-17T02:02:00;100981.44;;;10.68;59.32
3748;BME280;1889;50.058;8.688;2024-03-17T02:04:30;100973.57;;;10.62;59.49
3748;BME280;1889;50.058;8.688;2024-03-17T02:07:00;100966.11;;;10.61;59.41
3748;BME280;1889;50.058;8.688;2024-03-17T02:09:35;100967.42;;;10.58;59.50
3748;BME280;1889;50.058;8.688;2024-03-17T02:12:05;100972.25;;;10.54;59.54
3748;BME280;1889;50.058;8.688;2024-03-17T02:14:34;100962.26;;;10.37;59.76
3748;BME280;1889;50.058;8.688;2024-03-17T02:17:03;100966.64;;;10.33;60.07
3748;BME280;1889;50.058;8.688;2024-03-17T02:19:33;100961.38;;;10.33;60.09
3748;BME280;1889;50.058;8.688;2024-03-17T02:22:03;100960.06;;;10.35;60.10
3748;BME280;1889;50.058;8.688;2024-03-17T02:24:32;100967.08;;;10.31;60.11
3748;BME280;1889;50.058;8.688;2024-03-17T02:27:01;100967.10;;;10.22;60.21
3748;BME280;1889;50.058;8.688;2024-03-17T02:29:30;100957.92;;;10.18;60.38
3748;BME280;1889;50.058;8.688;2024-03-17T02:32:00;100957.02;;;10.23;60.35
3748;BME280;1889;50.058;8.688;2024-03-17T02:34:31;100957.45;;;10.26;60.15
3748;BME280;1889;50.058;8.688;2024-03-17T02:37:01;100957.91;;;10.28;60.00
3748;BME280;1889;50.058;8.688;2024-03-17T02:39:33;100960.12;;;10.21;59.98
3748;BME280;1889;50.058;8.688;2024-03-17T02:42:10;100955.73;;;10.17;60.15
3748;BME280;1889;50.058;8.688;2024-03-17T02:44:39;100949.58;;;10.11;60.14
3748;BME280;1889;50.058;8.688;2024-03-17T02:47:09;100946.06;;;10.06;60.26
3748;BME280;1889;50.058;8.688;2024-03-17T02:49:38;100950.91;;;10.02;60.32
3748;BME280;1889;50.058;8.688;2024-03-17T02:52:12;100941.71;;;10.03;60.30
3748;BME280;1889;50.058;8.688;2024-03-17T02:54:42;100943.00;;;10.06;60.36
3748;BME280;1889;50.058;8.688;2024-03-17T02:57:11;100936.45;;;10.05;60.31
3748;BME280;1889;50.058;8.688;2024-03-17T02:59:41;100939.95;;;10.01;60.32
3748;BME280;1889;50.058;8.688;2024-03-17T03:02:11;100932.96;;;9.93;60.42
3748;BME280;1889;50.058;8.688;2024-03-17T03:04:41;100936.88;;;9.98;60.29
3748;BME280;1889;50.058;8.688;2024-03-17T03:07:10;100936.45;;;9.89;60.21
3748;BME280;1889;50.058;8.688;2024-03-17T03:09:39;100931.69;;;9.69;60.35
3748;BME280;1889;50.058;8.688;2024-03-17T03:12:09;100933.88;;;9.70;60.55
3748;BME280;1889;50.058;8.688;2024-03-17T03:14:38;100937.38;;;9.70;60.62
3748;BME280;1889;50.058;8.688;2024-03-17T03:17:07;100938.69;;;9.79;60.13
3748;BME280;1889;50.058;8.688;2024-03-17T03:19:38;100936.52;;;9.73;60.38
3748;BME280;1889;50.058;8.688;2024-03-17T03:22:07;100944.39;;;9.61;60.61
3748;BME280;1889;50.058;8.688;2024-03-17T03:24:36;100945.72;;;9.30;60.61
3748;BME280;1889;50.058;8.688;2024-03-17T03:27:06;100947.41;;;9.01;61.26
3748;BME280;1889;50.058;8.688;2024-03-17T03:29:35;100946.50;;;8.87;61.59
3748;BME280;1889;50.058;8.688;2024-03-17T03:32:05;100954.77;;;8.71;62.05
3748;BME280;1889;50.058;8.688;2024-03-17T03:34:35;100958.30;;;8.74;62.30
3748;BME280;1889;50.058;8.688;2024-03-17T03:37:05;100963.06;;;8.69;62.49
3748;BME280;1889;50.058;8.688;2024-03-17T03:39:36;100959.52;;;8.55;62.66
3748;BME280;1889;50.058;8.688;2024-03-17T03:42:05;100950.38;;;8.64;62.84
3748;BME280;1889;50.058;8.688;2024-03-17T03:44:34;100953.91;;;8.72;62.63
3748;BME280;1889;50.058;8.688;2024-03-17T03:47:04;100962.61;;;8.62;62.72
3748;BME280;1889;50.058;8.688;2024-03-17T03:49:33;100953.46;;;8.66;62.79
3748;BME280;1889;50.058;8.688;2024-03-17T03:52:02;100954.75;;;8.68;62.78
3748;BME280;1889;50.058;8.688;2024-03-17T03:54:34;100961.28;;;8.60;62.81
3748;BME280;1889;50.058;8.688;2024-03-17T03:57:04;100970.05;;;8.58;62.83
3748;BME280;1889;50.058;8.688;2024-03-17T03:59:33;100963.45;;;8.53;62.69
3748;BME280;1889;50.058;8.688;2024-03-17T04:02:02;100964.73;;;8.46;62.70
3748;BME280;1889;50.058;8.688;2024-03-17T04:04:33;100963.42;;;8.43;62.74
3748;BME280;1889;50.058;8.688;2024-03-17T04:07:02;100968.67;;;8.43;62.91
3748;BME280;1889;50.058;8.688;2024-03-17T04:09:31;100973.52;;;8.55;62.90
3748;BME280;1889;50.058;8.688;2024-03-17T04:12:01;100970.96;;;8.76;62.11
3748;BME280;1889;50.058;8.688;2024-03-17T04:14:31;100971.42;;;8.74;62.24
3748;BME280;1889;50.058;8.688;2024-03-17T04:17:00;100969.67;;;8.79;62.23
3748;BME280;1889;50.058;8.688;2024-03-17T04:19:29;100974.03;;;8.77;62.29
3748;BME280;1889;50.058;8.688;2024-03-17T04:21:58;100971.12;;;8.21;62.77
3748;BME280;1889;50.058;8.688;2024-03-17T04:24:28;100984.52;;;7.93;63.51
3748;BME280;1889;50.058;8.688;2024-03-17T04:26:57;100986.78;;;8.08;63.42
3748;BME280;1889;50.058;8.688;2024-03-17T04:29:26;100986.33;;;8.05;63.28
3748;BME280;1889;50.058;8.688;2024-03-17T04:31:56;100984.16;;;8.08;63.31
3748;BME280;1889;50.058;8.688;2024-03-17T04:34:25;100982.91;;;8.20;63.13
3748;BME280;1889;50.058;8.688;2024-03-17T04:36:55;100978.98;;;8.20;63.00
3748;BME280;1889;50.058;8.688;2024-03-17T04:39:25;100988.66;;;8.30;63.04
3748;BME280;1889;50.058;8.688;2024-03-17T04:41:55;100987.68;;;8.13;62.92
3748;BME280;1889;50.058;8.688;2024-03-17T04:44:24;100982.10;;;8.30;62.62
3748;BME280;1889;50.058;8.688;2024-03-17T04:46:54;100981.02;;;8.72;60.54
3748;BME280;1889;50.058;8.688;2024-03-17T04:49:23;100979.23;;;8.59;61.17
3748;BME280;1889;50.058;8.688;2024-03-17T04:51:53;100976.98;;;8.48;61.64
3748;BME280;1889;50.058;8.688;2024-03-17T04:54:22;100977.00;;;8.50;61.67
3748;BME280;1889;50.058;8.688;2024-03-17T04:56:52;100973.97;;;8.61;61.10
3748;BME280;1889;50.058;8.688;2024-03-17T04:59:21;100979.58;;;8.40;61.39
3748;BME280;1889;50.058;8.688;2024-03-17T05:01:51;100981.22;;;8.25;61.87
3748;BME280;1889;50.058;8.688;2024-03-17T05:04:20;100985.08;;;8.14;62.13
3748;BME280;1889;50.058;8.688;2024-03-17T05:06:50;100982.92;;;8.17;62.37
3748;BME280;1889;50.058;8.688;2024-03-17T05:09:19;100981.67;;;8.30;62.49
3748;BME280;1889;50.058;8.688;2024-03-17T05:11:50;100978.25;;;8.34;62.52
3748;BME280;1889;50.058;8.688;2024-03-17T05:14:22;100979.12;;;8.38;62.58
3748;BME280;1889;50.058;8.688;2024-03-17T05:16:53;100980.03;;;8.46;62.37
3748;BME280;1889;50.058;8.688;2024-03-17T05:19:22;100979.16;;;8.46;62.19
3748;BME280;1889;50.058;8.688;2024-03-17T05:21:52;100975.16;;;8.32;62.19
3748;BME280;1889;50.058;8.688;2024-03-17T05:24:21;100978.58;;;8.23;62.40
3748;BME280;1889;50.058;8.688;2024-03-17T05:26:50;100969.95;;;8.35;62.08
3748;BME280;1889;50.058;8.688;2024-03-17T05:29:20;100968.62;;;8.36;62.25
3748;BME280;1889;50.058;8.688;2024-03-17T05:31:50;100971.66;;;8.31;62.25
3748;BME280;1889;50.058;8.688;2024-03-17T05:34:20;100979.13;;;8.35;62.18
3748;BME280;1889;50.058;8.688;2024-03-17T05:36:54;100975.66;;;8.47;61.59
3748;BME280;1889;50.058;8.688;2024-03-17T05:39:20;100976.57;;;8.50;61.63
3748;BME280;1889;50.058;8.688;2024-03-17T05:41:51;100975.70;;;8.51;61.62
3748;BME280;1889;50.058;8.688;2024-03-17T05:44:21;100976.19;;;8.64;61.51
3748;BME280;1889;50.058;8.688;2024-03-17T05:46:50;100977.92;;;8.62;61.69
3748;BME280;1889;50.058;8.688;2024-03-17T05:49:21;100977.94;;;8.65;61.61
3748;BME280;1889;50.058;8.688;2024-03-17T05:51:51;100976.61;;;8.59;61.85
3748;BME280;1889;50.058;8.688;2024-03-17T05:54:22;100979.25;;;8.65;62.14
3748;BME280;1889;50.058;8.688;2024-03-17T05:56:52;100987.14;;;8.67;62.38
3748;BME280;1889;50.058;8.688;2024-03-17T05:59:21;100986.71;;;8.76;62.39
3748;BME280;1889;50.058;8.688;2024-03-17T06:01:50;100991.98;;;8.79;62.45
3748;BME280;1889;50.058;8.688;2024-03-17T06:04:20;100982.39;;;8.89;62.44
3748;BME280;1889;50.058;8.688;2024-03-17T06:06:49;100984.15;;;8.95;62.44
3748;BME280;1889;50.058;8.688;2024-03-17T06:09:19;100985.94;;;9.05;62.26
3748;BME280;1889;50.058;8.688;2024-03-17T06:11:48;100978.48;;;9.09;62.19
3748;BME280;1889;50.058;8.688;2024-03-17T06:14:18;100972.81;;;9.17;61.74
3748;BME280;1889;50.058;8.688;2024-03-17T06:16:48;100978.97;;;9.16;61.96
3748;BME280;1889;50.058;8.688;2024-03-17T06:19:17;100975.45;;;9.20;62.07
3748;BME280;1889;50.058;8.688;2024-03-17T06:21:46;100974.59;;;9.21;62.26
3748;BME280;1889;50.058;8.688;2024-03-17T06:24:16;100970.66;;;9.30;62.19
3748;BME280;1889;50.058;8.688;2024-03-17T06:26:45;100967.14;;;9.33;62.08
3748;BME280;1889;50.058;8.688;2024-03-17T06:29:16;100971.52;;;9.26;62.27
3748;BME280;1889;50.058;8.688;2024-03-17T06:31:46;100968.86;;;9.09;62.55
3748;BME280;1889;50.058;8.688;2024-03-17T06:34:15;100959.21;;;8.95;62.94
3748;BME280;1889;50.058;8.688;2024-03-17T06:36:47;100966.22;;;8.96;63.27
3748;BME280;1889;50.058;8.688;2024-03-17T06:39:17;100971.02;;;8.93;63.40
3748;BME280;1889;50.058;8.688;2024-03-17T06:41:48;100972.25;;;8.69;63.77
3748;BME280;1889;50.058;8.688;2024-03-17T06:44:17;100973.94;;;8.53;64.36
3748;BME280;1889;50.058;8.688;2024-03-17T06:46:47;100961.30;;;8.62;64.73
3748;BME280;1889;50.058;8.688;2024-03-17T06:49:16;100951.31;;;8.86;64.59
3748;BME280;1889;50.058;8.688;2024-03-17T06:51:45;100959.23;;;9.04;64.20
3748;BME280;1889;50.058;8.688;2024-03-17T06:54:16;100959.69;;;9.17;64.01
3748;BME280;1889;50.058;8.688;2024-03-17T06:56:46;100959.72;;;9.37;63.56
3748;BME280;1889;50.058;8.688;2024-03-17T06:59:15;100963.69;;;9.56;63.21
3748;BME280;1889;50.058;8.688;2024-03-17T07:01:44;100957.95;;;9.57;63.35
3748;BME280;1889;50.058;8.688;2024-03-17T07:04:15;100958.39;;;9.58;63.50
3748;BME280;1889;50.058;8.688;2024-03-17T07:06:46;100956.21;;;9.68;63.41
3748;BME280;1889;50.058;8.688;2024-03-17T07:09:15;100959.70;;;9.82;63.10
3748;BME280;1889;50.058;8.688;2024-03-17T07:11:45;100958.84;;;9.88;62.90
3748;BME280;1889;50.058;8.688;2024-03-17T07:14:15;100956.17;;;10.00;62.66
3748;BME280;1889;50.058;8.688;2024-03-17T07:16:44;100957.52;;;9.86;63.00
3748;BME280;1889;50.058;8.688;2024-03-17T07:19:13;100949.16;;;9.90;62.85
3748;BME280;1889;50.058;8.688;2024-03-17T07:21:42;100949.63;;;9.85;63.16
3748;BME280;1889;50.058;8.688;2024-03-17T07:24:12;100950.03;;;9.98;63.15
3748;BME280;1889;50.058;8.688;2024-03-17T07:26:41;100953.52;;;10.06;62.80
3748;BME280;1889;50.058;8.688;2024-03-17T07:29:10;100943.88;;;10.10;62.61
3748;BME280;1889;50.058;8.688;2024-03-17T07:31:40;100954.42;;;10.04;62.49
3748;BME280;1889;50.058;8.688;2024-03-17T07:34:09;100945.66;;;9.89;62.96
3748;BME280;1889;50.058;8.688;2024-03-17T07:36:38;100954.40;;;10.08;62.67
3748;BME280;1889;50.058;8.688;2024-03-17T07:39:08;100948.69;;;10.22;62.41
3748;BME280;1889;50.058;8.688;2024-03-17T07:41:37;100947.81;;;10.29;62.11
3748;BME280;1889;50.058;8.688;2024-03-17T07:44:06;100936.83;;;10.38;61.73
3748;BME280;1889;50.058;8.688;2024-03-17T07:46:36;100943.80;;;10.43;61.43
3748;BME280;1889;50.058;8.688;2024-03-17T07:49:05;100938.55;;;10.42;61.56
3748;BME280;1889;50.058;8.688;2024-03-17T07:51:34;100944.66;;;10.51;61.33
3748;BME280;1889;50.058;8.688;2024-03-17T07:54:03;100939.75;;;10.63;60.63
3748;BME280;1889;50.058;8.688;2024-03-17T07:56:33;100940.70;;;10.50;60.94
3748;BME280;1889;50.058;8.688;2024-03-17T07:59:02;100939.35;;;10.62;60.77
3748;BME280;1889;50.058;8.688;2024-03-17T08:01:33;100931.38;;;10.74;60.40
3748;BME280;1889;50.058;8.688;2024-03-17T08:04:02;100938.34;;;10.86;59.85
3748;BME280;1889;50.058;8.688;2024-03-17T08:06:32;100935.67;;;10.90;59.69
3748;BME280;1889;50.058;8.688;2024-03-17T08:09:01;100935.18;;;11.00;59.48
3748;BME280;1889;50.058;8.688;2024-03-17T08:11:31;100937.71;;;11.14;58.74
3748;BME280;1889;50.058;8.688;2024-03-17T08:14:00;100933.81;;;11.07;59.12
3748;BME280;1889;50.058;8.688;2024-03-17T08:16:30;100937.27;;;11.16;59.07
3748;BME280;1889;50.058;8.688;2024-03-17T08:18:59;100932.00;;;11.14;59.08
3748;BME280;1889;50.058;8.688;2024-03-17T08:21:28;100932.05;;;11.09;59.08
3748;BME280;1889;50.058;8.688;2024-03-17T08:23:58;100932.50;;;11.04;58.96
3748;BME280;1889;50.058;8.688;2024-03-17T08:26:27;100936.32;;;11.26;58.62
3748;BME280;1889;50.058;8.688;2024-03-17T08:28:56;100937.26;;;11.17;57.51
3748;BME280;1889;50.058;8.688;2024-03-17T08:31:26;100942.03;;;11.25;58.15
3748;BME280;1889;50.058;8.688;2024-03-17T08:33:55;100946.36;;;11.34;57.97
3748;BME280;1889;50.058;8.688;2024-03-17T08:36:25;100946.30;;;11.40;57.49
3748;BME280;1889;50.058;8.688;2024-03-17T08:38:56;100947.00;;;11.60;57.41
3748;BME280;1889;50.058;8.688;2024-03-17T08:41:26;100944.73;;;11.69;57.52
3748;BME280;1889;50.058;8.688;2024-03-17T08:43:58;100942.23;;;11.52;56.27
3748;BME280;1889;50.058;8.688;2024-03-17T08:46:27;100938.69;;;11.59;56.72
3748;BME280;1889;50.058;8.688;2024-03-17T08:48:56;100939.45;;;11.69;56.57
3748;BME280;1889;50.058;8.688;2024-03-17T08:51:26;100933.31;;;11.74;56.06
3748;BME280;1889;50.058;8.688;2024-03-17T08:53:55;100935.63;;;12.05;55.86
3748;BME280;1889;50.058;8.688;2024-03-17T08:56:25;100932.09;;;12.07;54.90
3748;BME280;1889;50.058;8.688;2024-03-17T08:58:54;100929.41;;;12.10;54.89
3748;BME280;1889;50.058;8.688;2024-03-17T09:01:24;100924.99;;;12.12;54.77
3748;BME280;1889;50.058;8.688;2024-03-17T09:03:55;100919.41;;;12.40;54.61
3748;BME280;1889;50.058;8.688;2024-03-17T09:06:25;100916.58;;;12.53;54.17
3748;BME280;1889;50.058;8.688;2024-03-17T09:08:56;100911.86;;;12.77;54.10
3748;BME280;1889;50.058;8.688;2024-03-17T09:11:26;100909.39;;;12.96;53.75
3748;BME280;1889;50.058;8.688;2024-03-17T09:13:56;100909.72;;;13.03;53.31
3748;BME280;1889;50.058;8.688;2024-03-17T09:16:26;100913.02;;;13.20;52.61
3748;BME280;1889;50.058;8.688;2024-03-17T09:18:57;100906.59;;;13.35;52.03
3748;BME280;1889;50.058;8.688;2024-03-17T09:21:27;100908.41;;;13.31;51.61
3748;BME280;1889;50.058;8.688;2024-03-17T09:23:56;100905.31;;;13.32;51.04
3748;BME280;1889;50.058;8.688;2024-03-17T09:26:25;100910.34;;;13.47;50.86
3748;BME280;1889;50.058;8.688;2024-03-17T09:28:55;100907.68;;;13.49;50.66
3748;BME280;1889;50.058;8.688;2024-03-17T09:31:24;100910.51;;;13.63;50.88
3748;BME280;1889;50.058;8.688;2024-03-17T09:33:54;100904.92;;;13.55;50.32
3748;BME280;1889;50.058;8.688;2024-03-17T09:36:23;100909.23;;;13.62;50.41
3748;BME280;1889;50.058;8.688;2024-03-17T09:38:52;100903.66;;;13.53;49.32
3748;BME280;1889;50.058;8.688;2024-03-17T09:41:23;100905.42;;;13.53;49.71
3748;BME280;1889;50.058;8.688;2024-03-17T09:43:57;100902.84;;;13.73;50.03
3748;BME280;1889;50.058;8.688;2024-03-17T09:46:27;100897.64;;;13.69;50.26
3748;BME280;1889;50.058;8.688;2024-03-17T09:48:57;100897.23;;;13.66;49.62
3748;BME280;1889;50.058;8.688;2024-03-17T09:51:26;100890.36;;;13.80;49.72
3748;BME280;1889;50.058;8.688;2024-03-17T09:53:56;100894.89;;;13.97;49.61
3748;BME280;1889;50.058;8.688;2024-03-17T09:56:25;100889.77;;;13.88;48.38
3748;BME280;1889;50.058;8.688;2024-03-17T09:58:55;100890.45;;;13.99;49.33
3748;BME280;1889;50.058;8.688;2024-03-17T10:01:24;100889.27;;;14.14;48.89
3748;BME280;1889;50.058;8.688;2024-03-17T10:03:58;100887.34;;;14.22;48.84
3748;BME280;1889;50.058;8.688;2024-03-17T10:06:32;100880.85;;;14.37;48.96
3748;BME280;1889;50.058;8.688;2024-03-17T10:09:02;100876.19;;;14.27;48.33
3748;BME280;1889;50.058;8.688;2024-03-17T10:11:34;100872.09;;;14.35;49.33
3748;BME280;1889;50.058;8.688;2024-03-17T10:14:16;100870.58;;;14.65;48.82
3748;BME280;1889;50.058;8.688;2024-03-17T10:17:05;100873.63;;;14.85;48.59
3748;BME280;1889;50.058;8.688;2024-03-17T10:19:43;100870.95;;;14.86;47.96
3748;BME280;1889;50.058;8.688;2024-03-17T10:22:15;100869.14;;;14.88;48.17
3748;BME280;1889;50.058;8.688;2024-03-17T10:24:44;100871.39;;;15.05;48.04
3748;BME280;1889;50.058;8.688;2024-03-17T10:27:18;100873.31;;;15.16;48.18
3748;BME280;1889;50.058;8.688;2024-03-17T10:29:47;100877.48;;;15.09;47.62
3748;BME280;1889;50.058;8.688;2024-03-17T10:32:17;100882.77;;;15.28;47.82
3748;BME280;1889;50.058;8.688;2024-03-17T10:34:46;100878.88;;;15.41;47.48
3748;BME280;1889;50.058;8.688;2024-03-17T10:37:19;100876.59;;;15.45;46.71
3748;BME280;1889;50.058;8.688;2024-03-17T10:39:51;100870.07;;;15.58;47.30
3748;BME280;1889;50.058;8.688;2024-03-17T10:42:27;100868.09;;;15.67;46.62
3748;BME280;1889;50.058;8.688;2024-03-17T10:45:00;100869.41;;;15.67;46.25
3748;BME280;1889;50.058;8.688;2024-03-17T10:47:31;100856.08;;;15.70;46.57
3748;BME280;1889;50.058;8.688;2024-03-17T10:50:05;100860.47;;;15.53;46.40
3748;BME280;1889;50.058;8.688;2024-03-17T10:52:37;100863.44;;;15.58;46.42
3748;BME280;1889;50.058;8.688;2024-03-17T10:55:09;100864.80;;;15.57;46.01
3748;BME280;1889;50.058;8.688;2024-03-17T10:57:44;100856.77;;;15.60;46.22
3748;BME280;1889;50.058;8.688;2024-03-17T11:00:20;100857.89;;;15.68;46.16
3748;BME280;1889;50.058;8.688;2024-03-17T11:02:53;100855.30;;;15.48;45.56
3748;BME280;1889;50.058;8.688;2024-03-17T11:05:29;100858.89;;;15.46;46.13
3748;BME280;1889;50.058;8.688;2024-03-17T11:08:19;100852.69;;;15.64;46.38
3748;BME280;1889;50.058;8.688;2024-03-17T11:10:50;100855.16;;;15.87;45.62
3748;BME280;1889;50.058;8.688;2024-03-17T11:13:28;100855.16;;;15.87;45.62
3748;BME280;1889;50.058;8.688;2024-03-17T11:15:58;100849.08;;;15.98;45.82
3748;BME280;1889;50.058;8.688;2024-03-17T11:18:37;100849.50;;;15.99;45.96
3748;BME280;1889;50.058;8.688;2024-03-17T11:21:19;100849.50;;;15.99;45.96
3748;BME280;1889;50.058;8.688;2024-03-17T11:23:58;100847.42;;;16.10;45.24
3748;BME280;1889;50.058;8.688;2024-03-17T11:26:41;100847.98;;;16.21;44.71
3748;BME280;1889;50.058;8.688;2024-03-17T11:29:31;100847.98;;;16.21;44.71
3748;BME280;1889;50.058;8.688;2024-03-17T11:32:23;100845.68;;;16.38;44.62
3748;BME280;1889;50.058;8.688;2024-03-17T11:34:35;100844.41;;;16.52;44.65
3748;BME280;1889;50.058;8.688;2024-03-17T11:37:07;100841.61;;;16.71;44.85
3748;BME280;1889;50.058;8.688;2024-03-17T11:39:50;100841.61;;;16.71;44.85
3748;BME280;1889;50.058;8.688;2024-03-17T11:42:27;100829.32;;;16.82;44.39
3748;BME280;1889;50.058;8.688;2024-03-17T11:45:04;100829.65;;;16.86;44.26
3748;BME280;1889;50.058;8.688;2024-03-17T11:47:36;100825.24;;;16.85;44.04
3748;BME280;1889;50.058;8.688;2024-03-17T11:50:08;100830.56;;;16.85;43.97
3748;BME280;1889;50.058;8.688;2024-03-17T11:52:44;100833.89;;;17.04;43.63
3748;BME280;1889;50.058;8.688;2024-03-17T11:55:19;100833.89;;;17.04;43.63
3748;BME280;1889;50.058;8.688;2024-03-17T11:58:01;100826.19;;;17.10;43.82
3748;BME280;1889;50.058;8.688;2024-03-17T12:00:25;100827.80;;;17.27;43.42
3748;BME280;1889;50.058;8.688;2024-03-17T12:03:02;100818.95;;;17.40;42.93
3748;BME280;1889;50.058;8.688;2024-03-17T12:05:32;100820.06;;;17.46;42.59
3748;BME280;1889;50.058;8.688;2024-03-17T12:08:16;100817.38;;;17.08;43.06
3748;BME280;1889;50.058;8.688;2024-03-17T12:10:46;100807.66;;;17.33;44.19
3748;BME280;1889;50.058;8.688;2024-03-17T12:13:12;100816.20;;;17.54;43.06
3748;BME280;1889;50.058;8.688;2024-03-17T12:15:45;100810.77;;;17.33;42.82
3748;BME280;1889;50.058;8.688;2024-03-17T12:18:21;100822.46;;;16.74;42.93
3748;BME280;1889;50.058;8.688;2024-03-17T12:20:51;100810.80;;;16.78;42.93
3748;BME280;1889;50.058;8.688;2024-03-17T12:23:21;100810.25;;;16.82;42.88
3748;BME280;1889;50.058;8.688;2024-03-17T12:25:52;100811.48;;;17.11;43.36
3748;BME280;1889;50.058;8.688;2024-03-17T12:28:24;100804.95;;;17.35;42.60
3748;BME280;1889;50.058;8.688;2024-03-17T12:31:03;100798.77;;;17.46;42.63
3748;BME280;1889;50.058;8.688;2024-03-17T12:33:41;100802.76;;;17.46;42.37
3748;BME280;1889;50.058;8.688;2024-03-17T12:36:26;100802.67;;;17.61;42.06
3748;BME280;1889;50.058;8.688;2024-03-17T12:39:09;100793.78;;;17.75;42.42
3748;BME280;1889;50.058;8.688;2024-03-17T12:41:29;100795.61;;;17.60;42.00
3748;BME280;1889;50.058;8.688;2024-03-17T12:44:02;100784.23;;;17.81;41.71
3748;BME280;1889;50.058;8.688;2024-03-17T12:46:31;100781.85;;;17.73;42.10
3748;BME280;1889;50.058;8.688;2024-03-17T12:49:04;100781.21;;;17.78;42.14
3748;BME280;1889;50.058;8.688;2024-03-17T12:51:34;100775.27;;;17.83;42.11
3748;BME280;1889;50.058;8.688;2024-03-17T12:54:20;100775.27;;;17.83;42.11
3748;BME280;1889;50.058;8.688;2024-03-17T12:57:07;100764.23;;;17.69;41.58
3748;BME280;1889;50.058;8.688;2024-03-17T12:59:53;100768.36;;;18.01;41.77
3748;BME280;1889;50.058;8.688;2024-03-17T13:02:47;100770.44;;;18.16;41.55
3748;BME280;1889;50.058;8.688;2024-03-17T13:05:19;100770.44;;;18.16;41.55
3748;BME280;1889;50.058;8.688;2024-03-17T13:07:50;100760.64;;;18.40;41.46
3748;BME280;1889;50.058;8.688;2024-03-17T13:10:24;100760.64;;;18.40;41.46
3748;BME280;1889;50.058;8.688;2024-03-17T13:13:09;100753.04;;;18.08;41.21
3748;BME280;1889;50.058;8.688;2024-03-17T13:15:40;100753.04;;;18.08;41.21
3748;BME280;1889;50.058;8.688;2024-03-17T13:18:17;100756.80;;;18.14;41.21
3748;BME280;1889;50.058;8.688;2024-03-17T13:20:42;100753.66;;;18.03;41.18
3748;BME280;1889;50.058;8.688;2024-03-17T13:23:12;100746.38;;;18.08;41.26
3748;BME280;1889;50.058;8.688;2024-03-17T13:25:42;100733.79;;;18.11;41.64
3748;BME280;1889;50.058;8.688;2024-03-17T13:28:13;100730.92;;;18.27;41.30
3748;BME280;1889;50.058;8.688;2024-03-17T13:30:48;100715.70;;;18.31;41.28
3748;BME280;1889;50.058;8.688;2024-03-17T13:33:15;100719.03;;;18.14;40.83
3748;BME280;1889;50.058;8.688;2024-03-17T13:35:47;100716.27;;;17.82;41.64